Time;durP1;ratioP1;P1;durP2;ratioP2;P2;SDS_P1;SDS_P2;PMS_P1;PMS_P2;Temp;Humidity;BMP_temperature;BMP_pressure;BME280_temperature;BME280_humidity;BME280_pressure;Samples;Min_cycle;Max_cycle;Signal;HPM_P1;HPM_P2
2023/04/16 00:01:57;;;;;;;4.38;2.28;;;;;;;;;;5049495;28;20060;-84
2023/04/16 00:04:22;;;;;;;3.08;2.20;;;;;;;;;;5048913;28;20033;-83
2023/04/16 00:06:48;;;;;;;4.20;2.33;;;;;;;;;;5050249;28;20045;-83
2023/04/16 00:09:13;;;;;;;4.53;2.53;;;;;;;;;;5046578;28;20038;-84
2023/04/16 00:11:39;;;;;;;3.35;2.40;;;;;;;;;;5047682;28;20110;-84
2023/04/16 00:14:04;;;;;;;3.53;2.38;;;;;;;;;;5049144;28;20063;-84
2023/04/16 00:16:30;;;;;;;2.80;2.50;;;;;;;;;;5047609;28;20040;-83
2023/04/16 00:18:55;;;;;;;3.92;2.63;;;;;;;;;;5047677;28;20049;-83
2023/04/16 00:21:21;;;;;;;3.72;2.30;;;;;;;;;;5048135;28;20048;-83
2023/04/16 00:23:46;;;;;;;4.15;2.70;;;;;;;;;;5047415;28;20033;-83
2023/04/16 00:26:12;;;;;;;4.38;2.88;;;;;;;;;;5046910;28;20038;-83
2023/04/16 00:28:40;;;;;;;4.80;2.97;;;;;;;;;;5048866;28;20048;-84
2023/04/16 00:31:06;;;;;;;3.60;2.78;;;;;;;;;;5046994;28;20045;-83
2023/04/16 00:33:31;;;;;;;5.72;2.78;;;;;;;;;;5028973;28;20132;-83
2023/04/16 00:35:57;;;;;;;3.58;2.60;;;;;;;;;;5048343;28;20384;-84
2023/04/16 00:38:23;;;;;;;4.18;3.15;;;;;;;;;;5028254;28;20042;-83
2023/04/16 00:40:48;;;;;;;5.43;2.70;;;;;;;;;;5045313;28;20037;-84
2023/04/16 00:43:25;;;;;;;3.95;2.70;;;;;;;;;;5047953;28;20044;-84
2023/04/16 00:45:52;;;;;;;4.07;2.60;;;;;;;;;;5029510;28;20060;-83
2023/04/16 00:48:19;;;;;;;4.57;2.78;;;;;;;;;;5045069;28;20033;-84
2023/04/16 00:50:45;;;;;;;4.00;2.90;;;;;;;;;;5047308;28;20040;-83
2023/04/16 00:53:11;;;;;;;3.75;2.67;;;;;;;;;;5045646;28;20037;-84
2023/04/16 00:55:38;;;;;;;3.50;2.80;;;;;;;;;;5027280;28;20491;-84
2023/04/16 00:58:03;;;;;;;4.40;2.80;;;;;;;;;;5046357;28;20108;-84
2023/04/16 01:00:29;;;;;;;4.03;2.70;;;;;;;;;;5046718;28;20451;-84
2023/04/16 01:02:54;;;;;;;3.97;2.67;;;;;;;;;;5044692;28;20040;-83
2023/04/16 01:05:20;;;;;;;4.07;3.00;;;;;;;;;;5045247;28;20033;-84
2023/04/16 01:07:45;;;;;;;4.10;3.10;;;;;;;;;;5028734;28;20048;-84
2023/04/16 01:10:11;;;;;;;3.55;2.63;;;;;;;;;;5044615;28;20072;-83
2023/04/16 01:12:36;;;;;;;3.92;2.67;;;;;;;;;;5044705;28;20029;-83
2023/04/16 01:15:02;;;;;;;3.78;2.20;;;;;;;;;;5045159;28;20103;-83
2023/04/16 01:17:27;;;;;;;3.00;2.25;;;;;;;;;;5043075;28;20037;-84
2023/04/16 01:19:53;;;;;;;2.72;2.10;;;;;;;;;;5044645;28;20033;-83
2023/04/16 01:22:18;;;;;;;3.20;1.77;;;;;;;;;;5045972;28;20051;-83
2023/04/16 01:24:44;;;;;;;2.25;1.95;;;;;;;;;;5042390;28;20104;-84
2023/04/16 01:27:10;;;;;;;3.20;2.00;;;;;;;;;;5044663;28;20490;-83
2023/04/16 01:29:35;;;;;;;3.22;2.40;;;;;;;;;;5044187;28;20473;-83
2023/04/16 01:32:01;;;;;;;3.65;2.60;;;;;;;;;;5042471;28;20052;-83
2023/04/16 01:34:30;;;;;;;3.00;2.25;;;;;;;;;;5028443;28;20025;-83
2023/04/16 01:36:57;;;;;;;2.55;1.90;;;;;;;;;;5044741;28;20037;-83
2023/04/16 01:39:22;;;;;;;2.25;1.70;;;;;;;;;;5042251;28;20120;-83
2023/04/16 01:41:48;;;;;;;2.15;1.80;;;;;;;;;;5044011;28;20032;-83
2023/04/16 01:44:13;;;;;;;2.28;1.85;;;;;;;;;;5044063;28;20425;-83
2023/04/16 01:46:42;;;;;;;1.90;1.45;;;;;;;;;;5043368;28;20037;-83
2023/04/16 01:49:08;;;;;;;1.67;1.40;;;;;;;;;;5044472;28;20036;-83
2023/04/16 01:51:33;;;;;;;2.10;1.50;;;;;;;;;;5044667;28;20052;-83
2023/04/16 01:53:59;;;;;;;2.75;1.50;;;;;;;;;;5041371;28;20119;-83
2023/04/16 01:56:25;;;;;;;1.38;1.20;;;;;;;;;;5043103;28;20047;-83
2023/04/16 01:58:51;;;;;;;1.40;1.20;;;;;;;;;;5027193;28;20052;-83
2023/04/16 02:01:18;;;;;;;1.30;1.20;;;;;;;;;;5041687;28;20034;-83
2023/04/16 02:03:45;;;;;;;1.15;1.05;;;;;;;;;;5042704;28;20032;-83
2023/04/16 02:06:10;;;;;;;1.65;1.33;;;;;;;;;;5045470;28;20036;-83
2023/04/16 02:08:36;;;;;;;1.90;1.40;;;;;;;;;;5043119;28;20566;-84
2023/04/16 02:11:01;;;;;;;1.90;1.60;;;;;;;;;;5044073;28;20086;-83
2023/04/16 02:13:27;;;;;;;2.40;1.80;;;;;;;;;;5043674;28;20499;-83
2023/04/16 02:15:53;;;;;;;3.10;2.05;;;;;;;;;;5042738;28;20061;-83
2023/04/16 02:18:33;;;;;;;2.70;2.00;;;;;;;;;;5041496;28;20029;-84
2023/04/16 02:20:59;;;;;;;2.92;2.10;;;;;;;;;;5044315;28;20033;-84
2023/04/16 02:23:24;;;;;;;2.80;2.15;;;;;;;;;;5043185;28;20168;-83
2023/04/16 02:25:50;;;;;;;3.40;2.60;;;;;;;;;;5024197;28;20112;-84
2023/04/16 02:28:16;;;;;;;3.17;2.40;;;;;;;;;;5042823;28;20036;-84
2023/04/16 02:30:44;;;;;;;3.15;2.45;;;;;;;;;;5043706;28;20036;-84
2023/04/16 02:33:12;;;;;;;4.18;2.90;;;;;;;;;;5042267;28;20040;-83
2023/04/16 02:35:42;;;;;;;3.08;2.63;;;;;;;;;;5026360;28;20102;-83
2023/04/16 02:38:08;;;;;;;4.43;2.88;;;;;;;;;;5044567;28;20068;-83
2023/04/16 02:40:35;;;;;;;3.72;2.80;;;;;;;;;;5041717;28;20079;-83
2023/04/16 02:43:01;;;;;;;3.42;2.67;;;;;;;;;;5041303;28;20446;-84
2023/04/16 02:45:26;;;;;;;3.40;2.42;;;;;;;;;;5043679;28;20025;-84
2023/04/16 02:47:52;;;;;;;4.25;2.53;;;;;;;;;;5041885;28;20506;-83
2023/04/16 02:50:18;;;;;;;4.68;3.15;;;;;;;;;;5042458;28;20580;-84
2023/04/16 02:52:44;;;;;;;3.33;2.80;;;;;;;;;;5027333;28;20036;-84
2023/04/16 02:55:10;;;;;;;4.38;2.78;;;;;;;;;;5041400;28;20029;-84
2023/04/16 02:57:35;;;;;;;3.45;2.60;;;;;;;;;;5041125;28;20045;-84
2023/04/16 03:00:03;;;;;;;2.45;1.80;;;;;;;;;;5043150;28;20029;-84
2023/04/16 03:02:29;;;;;;;2.28;1.40;;;;;;;;;;5024311;28;20033;-84
2023/04/16 03:04:55;;;;;;;1.55;1.30;;;;;;;;;;5040936;28;20168;-83
2023/04/16 03:07:20;;;;;;;1.40;1.20;;;;;;;;;;5026497;28;20470;-83
2023/04/16 03:09:46;;;;;;;1.77;1.30;;;;;;;;;;5041019;28;20479;-83
2023/04/16 03:12:11;;;;;;;1.90;1.50;;;;;;;;;;5041147;28;20164;-84
2023/04/16 03:14:37;;;;;;;3.30;1.98;;;;;;;;;;5043770;28;20044;-83
2023/04/16 03:17:02;;;;;;;2.45;1.80;;;;;;;;;;5024523;28;20040;-84
2023/04/16 03:19:28;;;;;;;2.63;1.80;;;;;;;;;;5042635;28;20127;-84
2023/04/16 03:21:53;;;;;;;1.90;1.60;;;;;;;;;;5043020;28;20052;-83
2023/04/16 03:24:19;;;;;;;1.88;1.48;;;;;;;;;;5042985;28;20542;-83
2023/04/16 03:26:47;;;;;;;1.45;1.30;;;;;;;;;;5045234;28;20036;-83
2023/04/16 03:29:13;;;;;;;1.63;1.15;;;;;;;;;;5030285;28;20029;-83
2023/04/16 03:31:38;;;;;;;1.10;1.00;;;;;;;;;;5044523;28;20499;-84
2023/04/16 03:34:04;;;;;;;0.88;0.88;;;;;;;;;;5028103;28;20033;-83
2023/04/16 03:36:31;;;;;;;1.30;0.80;;;;;;;;;;5046569;28;20040;-83
2023/04/16 03:38:56;;;;;;;1.13;0.88;;;;;;;;;;5027515;28;20096;-83
2023/04/16 03:41:22;;;;;;;1.10;1.00;;;;;;;;;;5045114;28;20521;-84
2023/04/16 03:43:48;;;;;;;1.20;1.00;;;;;;;;;;5030345;28;20040;-84
2023/04/16 03:46:14;;;;;;;1.08;0.98;;;;;;;;;;5046830;28;20037;-84
2023/04/16 03:48:40;;;;;;;1.10;1.00;;;;;;;;;;5048213;28;20380;-84
2023/04/16 03:51:05;;;;;;;1.10;1.00;;;;;;;;;;5047873;28;20029;-83
2023/04/16 03:53:32;;;;;;;1.05;0.95;;;;;;;;;;5046025;28;20124;-84
2023/04/16 03:55:58;;;;;;;1.30;1.20;;;;;;;;;;5047049;28;20072;-83
2023/04/16 03:58:24;;;;;;;1.65;1.35;;;;;;;;;;5046465;28;20029;-83
2023/04/16 04:00:52;;;;;;;2.00;1.50;;;;;;;;;;5028613;28;20037;-84
2023/04/16 04:03:18;;;;;;;2.28;1.60;;;;;;;;;;5027512;28;20032;-83
2023/04/16 04:05:46;;;;;;;1.38;1.27;;;;;;;;;;5046714;28;20056;-82
2023/04/16 04:08:14;;;;;;;2.00;1.55;;;;;;;;;;5044899;28;20033;-83
2023/04/16 04:10:40;;;;;;;1.50;1.10;;;;;;;;;;5043766;28;20033;-83
2023/04/16 04:13:08;;;;;;;1.60;1.30;;;;;;;;;;5046522;28;20036;-83
2023/04/16 04:15:34;;;;;;;1.33;1.20;;;;;;;;;;5045179;28;20445;-83
2023/04/16 04:18:00;;;;;;;1.20;1.08;;;;;;;;;;5044618;28;20029;-84
2023/04/16 04:20:25;;;;;;;1.40;1.20;;;;;;;;;;5045878;28;20044;-84
2023/04/16 04:22:52;;;;;;;1.20;1.10;;;;;;;;;;5045368;28;20033;-84
2023/04/16 04:25:20;;;;;;;1.38;1.20;;;;;;;;;;5043267;28;20038;-83
2023/04/16 04:27:46;;;;;;;1.48;1.30;;;;;;;;;;5044793;28;20088;-84
2023/04/16 04:30:11;;;;;;;2.70;1.70;;;;;;;;;;5046404;28;20074;-84
2023/04/16 04:32:38;;;;;;;1.50;1.40;;;;;;;;;;5027319;28;20034;-83
2023/04/16 04:35:03;;;;;;;52.45;21.50;;;;;;;;;;5047373;28;20032;-83
2023/04/16 04:37:29;;;;;;;22.02;14.88;;;;;;;;;;5029490;28;20044;-83
2023/04/16 04:39:55;;;;;;;6.68;5.63;;;;;;;;;;5045417;28;20041;-82
2023/04/16 04:42:20;;;;;;;4.75;3.70;;;;;;;;;;5046140;28;20640;-83
2023/04/16 04:44:46;;;;;;;2.75;2.22;;;;;;;;;;5045638;28;20029;-84
2023/04/16 04:47:13;;;;;;;3.55;2.05;;;;;;;;;;5047735;28;20516;-83
2023/04/16 04:49:39;;;;;;;3.38;2.20;;;;;;;;;;5044193;28;20036;-83
2023/04/16 04:52:05;;;;;;;2.75;2.38;;;;;;;;;;5027589;28;20474;-83
2023/04/16 04:54:31;;;;;;;4.00;2.45;;;;;;;;;;5045962;28;20563;-83
2023/04/16 04:56:57;;;;;;;4.30;2.95;;;;;;;;;;5044515;28;20037;-82
2023/04/16 04:59:23;;;;;;;4.75;2.90;;;;;;;;;;5043457;28;20041;-83
2023/04/16 05:01:49;;;;;;;4.32;2.75;;;;;;;;;;5047929;28;20029;-82
2023/04/16 05:04:15;;;;;;;4.82;3.30;;;;;;;;;;5045611;28;20025;-83
2023/04/16 05:06:41;;;;;;;5.10;3.70;;;;;;;;;;5045006;28;20044;-83
2023/04/16 05:09:10;;;;;;;5.22;3.78;;;;;;;;;;5046927;28;20037;-83
2023/04/16 05:11:40;;;;;;;5.13;3.90;;;;;;;;;;5045428;28;20041;-83
2023/04/16 05:14:06;;;;;;;7.50;3.88;;;;;;;;;;5043238;28;20087;-83
2023/04/16 05:16:31;;;;;;;6.80;4.10;;;;;;;;;;5045056;28;20025;-83
2023/04/16 05:18:57;;;;;;;6.07;3.92;;;;;;;;;;5045825;28;20033;-83
2023/04/16 05:21:23;;;;;;;5.30;4.00;;;;;;;;;;5042950;28;20406;-83
2023/04/16 05:23:49;;;;;;;7.97;4.05;;;;;;;;;;5045662;28;20025;-83
2023/04/16 05:26:14;;;;;;;5.05;3.65;;;;;;;;;;5045630;28;20475;-83
2023/04/16 05:28:40;;;;;;;6.53;3.88;;;;;;;;;;5043232;28;20029;-82
2023/04/16 05:31:05;;;;;;;5.35;4.07;;;;;;;;;;5045577;28;20546;-81
2023/04/16 05:33:31;;;;;;;5.35;3.83;;;;;;;;;;5043398;28;20044;-82
2023/04/16 05:35:56;;;;;;;5.25;3.70;;;;;;;;;;5043615;28;20099;-82
2023/04/16 05:38:22;;;;;;;5.40;4.10;;;;;;;;;;5027482;28;20032;-83
2023/04/16 05:40:47;;;;;;;4.97;3.97;;;;;;;;;;5042951;28;20037;-82
2023/04/16 05:43:12;;;;;;;5.65;4.13;;;;;;;;;;5043925;28;20037;-82
2023/04/16 05:45:39;;;;;;;5.78;4.30;;;;;;;;;;5045507;28;20406;-82
2023/04/16 05:48:08;;;;;;;6.68;4.50;;;;;;;;;;5044344;28;20256;-82
2023/04/16 05:50:35;;;;;;;5.30;3.97;;;;;;;;;;5046185;28;20033;-82
2023/04/16 05:53:02;;;;;;;5.45;3.90;;;;;;;;;;5043366;28;20076;-82
2023/04/16 05:55:27;;;;;;;6.95;4.10;;;;;;;;;;5043676;28;20033;-83
2023/04/16 05:57:53;;;;;;;4.68;3.40;;;;;;;;;;5041215;28;20056;-82
2023/04/16 06:00:19;;;;;;;5.32;3.75;;;;;;;;;;5044771;28;20376;-83
2023/04/16 06:02:45;;;;;;;4.40;3.33;;;;;;;;;;5043495;28;20029;-83
2023/04/16 06:05:10;;;;;;;3.35;2.70;;;;;;;;;;5042390;28;20124;-82
2023/04/16 06:07:35;;;;;;;4.10;2.80;;;;;;;;;;5045258;28;20032;-83
2023/04/16 06:10:01;;;;;;;3.28;2.67;;;;;;;;;;5043278;28;20540;-82
2023/04/16 06:12:27;;;;;;;3.95;2.80;;;;;;;;;;5042362;28;20057;-82
2023/04/16 06:14:53;;;;;;;4.43;3.20;;;;;;;;;;5044229;28;20098;-81
2023/04/16 06:17:19;;;;;;;3.67;2.80;;;;;;;;;;5044588;28;20090;-82
2023/04/16 06:19:45;;;;;;;3.92;2.67;;;;;;;;;;5043218;28;20048;-82
2023/04/16 06:22:10;;;;;;;4.38;3.05;;;;;;;;;;5040325;28;20507;-82
2023/04/16 06:24:36;;;;;;;5.80;3.30;;;;;;;;;;5041884;28;20099;-80
2023/04/16 06:27:01;;;;;;;5.28;3.25;;;;;;;;;;5043947;28;20032;-80
2023/04/16 06:29:27;;;;;;;4.18;3.17;;;;;;;;;;5041354;28;20052;-81
2023/04/16 06:31:53;;;;;;;4.95;3.90;;;;;;;;;;5041082;28;20063;-80
2023/04/16 06:34:19;;;;;;;5.18;3.53;;;;;;;;;;5042128;28;20037;-82
2023/04/16 06:36:44;;;;;;;5.63;4.00;;;;;;;;;;5041157;28;20029;-81
2023/04/16 06:39:10;;;;;;;5.10;3.33;;;;;;;;;;5040381;28;20033;-81
2023/04/16 06:41:35;;;;;;;4.90;3.53;;;;;;;;;;5042074;28;20545;-80
2023/04/16 06:44:01;;;;;;;4.70;3.40;;;;;;;;;;5042979;28;20085;-81
2023/04/16 06:46:26;;;;;;;5.60;3.28;;;;;;;;;;5041063;28;20040;-81
2023/04/16 06:48:52;;;;;;;2.70;2.08;;;;;;;;;;5039541;28;20522;-81
2023/04/16 06:51:17;;;;;;;3.03;2.40;;;;;;;;;;5041837;28;20041;-81
2023/04/16 06:53:43;;;;;;;4.47;3.13;;;;;;;;;;5042084;28;20034;-82
2023/04/16 06:56:08;;;;;;;3.33;2.45;;;;;;;;;;5040992;28;20418;-82
2023/04/16 06:58:34;;;;;;;3.92;2.65;;;;;;;;;;5044365;28;20067;-82
2023/04/16 07:00:59;;;;;;;3.47;2.42;;;;;;;;;;5048684;28;20029;-83
2023/04/16 07:03:25;;;;;;;2.60;2.10;;;;;;;;;;5051630;28;20511;-81
2023/04/16 07:05:50;;;;;;;2.42;1.88;;;;;;;;;;5048921;28;20029;-81
2023/04/16 07:08:16;;;;;;;2.10;1.58;;;;;;;;;;5045251;28;20041;-83
2023/04/16 07:10:41;;;;;;;2.10;1.70;;;;;;;;;;5047188;28;20033;-84
2023/04/16 07:13:07;;;;;;;2.30;1.77;;;;;;;;;;5048629;28;20518;-82
2023/04/16 07:15:32;;;;;;;2.88;1.63;;;;;;;;;;5048570;28;20063;-83
2023/04/16 07:17:58;;;;;;;1.77;1.40;;;;;;;;;;5051960;28;20100;-82
2023/04/16 07:20:23;;;;;;;2.92;1.50;;;;;;;;;;5053446;28;20044;-83
2023/04/16 07:22:49;;;;;;;3.47;1.38;;;;;;;;;;5052355;28;20033;-83
2023/04/16 07:25:14;;;;;;;2.72;1.60;;;;;;;;;;5032270;28;20059;-83
2023/04/16 07:27:40;;;;;;;2.33;1.30;;;;;;;;;;5054909;28;20041;-83
2023/04/16 07:30:06;;;;;;;3.00;1.70;;;;;;;;;;5072929;28;20123;-84
2023/04/16 07:32:32;;;;;;;2.15;1.35;;;;;;;;;;5047604;28;20043;-82
2023/04/16 07:34:57;;;;;;;1.83;1.20;;;;;;;;;;5048794;28;20033;-83
2023/04/16 07:37:23;;;;;;;2.50;1.40;;;;;;;;;;5047500;28;20036;-82
2023/04/16 07:39:48;;;;;;;2.25;1.30;;;;;;;;;;5054295;28;20067;-83
2023/04/16 07:42:14;;;;;;;3.45;1.38;;;;;;;;;;5058784;28;20052;-83
2023/04/16 07:44:40;;;;;;;2.88;1.38;;;;;;;;;;5054953;28;20033;-82
2023/04/16 07:47:05;;;;;;;2.03;1.05;;;;;;;;;;5056637;28;20087;-83
2023/04/16 07:49:30;;;;;;;2.90;1.35;;;;;;;;;;5059654;28;20036;-82
2023/04/16 07:51:56;;;;;;;2.30;1.40;;;;;;;;;;5059328;28;20086;-82
2023/04/16 07:54:21;;;;;;;2.03;1.20;;;;;;;;;;5056191;28;20108;-82
2023/04/16 07:56:51;;;;;;;1.10;0.80;;;;;;;;;;5055144;28;20086;-82
2023/04/16 07:59:19;;;;;;;0.77;0.70;;;;;;;;;;5055488;28;20048;-83
2023/04/16 08:01:44;;;;;;;0.80;0.60;;;;;;;;;;5060677;28;20040;-84
2023/04/16 08:04:10;;;;;;;1.40;1.00;;;;;;;;;;5058906;28;20391;-83
2023/04/16 08:06:36;;;;;;;0.80;0.60;;;;;;;;;;5055371;28;20049;-83
2023/04/16 08:09:02;;;;;;;0.90;0.60;;;;;;;;;;5053149;28;20037;-83
2023/04/16 08:11:27;;;;;;;0.95;0.80;;;;;;;;;;5057919;28;20134;-83
2023/04/16 08:13:53;;;;;;;2.10;1.40;;;;;;;;;;5053431;28;20044;-82
2023/04/16 08:16:18;;;;;;;0.50;0.50;;;;;;;;;;5058029;28;20147;-83
2023/04/16 08:18:44;;;;;;;0.60;0.40;;;;;;;;;;5058235;28;20093;-83
2023/04/16 08:21:09;;;;;;;0.57;0.50;;;;;;;;;;5057010;28;20036;-84
2023/04/16 08:23:35;;;;;;;0.90;0.70;;;;;;;;;;5057067;28;20033;-83
2023/04/16 08:26:01;;;;;;;1.05;0.80;;;;;;;;;;5056582;28;20052;-83
2023/04/16 08:28:26;;;;;;;1.52;1.05;;;;;;;;;;5071705;28;20070;-82
2023/04/16 08:30:52;;;;;;;1.23;1.00;;;;;;;;;;5059128;28;20124;-83
2023/04/16 08:33:17;;;;;;;1.38;0.82;;;;;;;;;;5057758;28;20075;-84
2023/04/16 08:35:43;;;;;;;0.77;0.75;;;;;;;;;;5056893;28;20037;-83
2023/04/16 08:38:08;;;;;;;1.30;0.70;;;;;;;;;;5044696;28;20051;-85
2023/04/16 08:40:37;;;;;;;1.23;0.82;;;;;;;;;;5058109;28;20104;-84
2023/04/16 08:43:08;;;;;;;1.05;0.80;;;;;;;;;;5056887;28;20052;-84
2023/04/16 08:45:34;;;;;;;1.33;0.80;;;;;;;;;;5054164;28;20068;-83
2023/04/16 08:48:00;;;;;;;1.00;0.80;;;;;;;;;;5057138;28;20562;-82
2023/04/16 08:50:27;;;;;;;0.93;0.70;;;;;;;;;;5054512;28;20037;-82
2023/04/16 08:52:56;;;;;;;1.05;0.77;;;;;;;;;;5058299;28;20114;-82
2023/04/16 08:55:29;;;;;;;0.60;0.60;;;;;;;;;;5055339;28;20136;-83
2023/04/16 08:58:00;;;;;;;0.90;0.63;;;;;;;;;;5053633;28;20042;-83
2023/04/16 09:00:27;;;;;;;1.00;0.73;;;;;;;;;;5054618;28;20053;-83
2023/04/16 09:02:52;;;;;;;0.68;0.68;;;;;;;;;;5056332;28;20024;-83
2023/04/16 09:05:20;;;;;;;0.85;0.70;;;;;;;;;;5050948;28;20025;-82
2023/04/16 09:07:47;;;;;;;0.90;0.60;;;;;;;;;;5055992;28;20402;-82
2023/04/16 09:10:16;;;;;;;1.10;0.73;;;;;;;;;;5056450;28;20062;-83
2023/04/16 09:12:42;;;;;;;1.15;0.80;;;;;;;;;;5054400;28;20036;-83
2023/04/16 09:15:12;;;;;;;1.10;0.90;;;;;;;;;;5056161;28;20032;-83
2023/04/16 09:17:38;;;;;;;0.50;0.50;;;;;;;;;;5052748;28;20052;-82
2023/04/16 09:20:07;;;;;;;0.60;0.60;;;;;;;;;;5054809;28;20029;-82
2023/04/16 09:22:36;;;;;;;0.60;0.60;;;;;;;;;;5053215;28;20048;-83
2023/04/16 09:25:02;;;;;;;1.55;0.90;;;;;;;;;;5053794;28;20031;-83
2023/04/16 09:27:28;;;;;;;0.85;0.70;;;;;;;;;;5056866;28;20037;-83
2023/04/16 09:29:54;;;;;;;0.75;0.70;;;;;;;;;;5057504;28;20047;-82
2023/04/16 09:32:25;;;;;;;0.80;0.60;;;;;;;;;;5056507;28;20024;-82
2023/04/16 09:34:54;;;;;;;0.63;0.63;;;;;;;;;;5052957;28;20036;-83
2023/04/16 09:37:20;;;;;;;1.38;1.00;;;;;;;;;;5051769;28;20080;-84
2023/04/16 09:39:53;;;;;;;2.25;1.40;;;;;;;;;;5035500;28;20064;-83
2023/04/16 09:42:31;;;;;;;1.45;1.00;;;;;;;;;;5045885;28;20040;-82
2023/04/16 09:44:57;;;;;;;3.08;1.30;;;;;;;;;;5052923;28;20552;-83
2023/04/16 09:47:24;;;;;;;0.80;0.70;;;;;;;;;;5052950;28;20033;-83
2023/04/16 09:49:50;;;;;;;0.70;0.70;;;;;;;;;;5051192;28;20032;-83
2023/04/16 09:52:18;;;;;;;1.70;0.80;;;;;;;;;;5052481;28;20132;-82
2023/04/16 09:54:48;;;;;;;1.10;0.90;;;;;;;;;;5050807;28;20151;-82
2023/04/16 09:57:19;;;;;;;1.50;1.20;;;;;;;;;;5049114;28;20072;-83
2023/04/16 09:59:46;;;;;;;3.05;1.10;;;;;;;;;;5049914;28;20116;-82
2023/04/16 10:02:11;;;;;;;0.90;0.70;;;;;;;;;;5051363;28;20056;-82
2023/04/16 10:04:47;;;;;;;1.17;0.60;;;;;;;;;;5055878;28;20505;-83
2023/04/16 10:07:12;;;;;;;0.60;0.60;;;;;;;;;;5052548;28;20075;-83
2023/04/16 10:09:39;;;;;;;2.20;0.82;;;;;;;;;;5052119;28;20075;-83
2023/04/16 10:12:05;;;;;;;0.73;0.60;;;;;;;;;;5034390;28;20025;-83
2023/04/16 10:14:31;;;;;;;3.22;0.60;;;;;;;;;;5033901;28;20043;-82
2023/04/16 10:16:57;;;;;;;1.20;0.60;;;;;;;;;;5051926;28;20111;-82
2023/04/16 10:19:24;;;;;;;1.25;0.93;;;;;;;;;;5050933;28;20394;-82
2023/04/16 10:21:49;;;;;;;1.38;0.90;;;;;;;;;;5052181;28;20530;-83
2023/04/16 10:24:16;;;;;;;1.80;0.88;;;;;;;;;;5051994;28;20113;-82
2023/04/16 10:26:42;;;;;;;1.02;0.80;;;;;;;;;;5052336;28;20037;-83
2023/04/16 10:29:08;;;;;;;0.90;0.80;;;;;;;;;;5053233;28;20119;-83
2023/04/16 10:31:36;;;;;;;0.73;0.70;;;;;;;;;;5047680;28;20076;-83
2023/04/16 10:34:02;;;;;;;1.70;0.82;;;;;;;;;;5053170;28;20037;-83
2023/04/16 10:36:28;;;;;;;2.35;1.10;;;;;;;;;;5052826;28;20047;-82
2023/04/16 10:39:03;;;;;;;2.20;1.10;;;;;;;;;;5049048;28;20033;-83
2023/04/16 10:41:31;;;;;;;1.00;0.80;;;;;;;;;;5035318;28;20067;-83
2023/04/16 10:44:05;;;;;;;1.55;1.10;;;;;;;;;;5052282;28;20037;-83
2023/04/16 10:46:33;;;;;;;1.38;1.15;;;;;;;;;;5051549;28;20029;-83
2023/04/16 10:49:13;;;;;;;2.88;1.30;;;;;;;;;;5052981;28;20399;-83
2023/04/16 10:51:39;;;;;;;1.10;1.00;;;;;;;;;;5051172;28;20041;-84
2023/04/16 10:54:08;;;;;;;2.30;1.10;;;;;;;;;;5052339;28;20040;-83
2023/04/16 10:56:35;;;;;;;1.50;0.82;;;;;;;;;;5052676;28;20043;-83
2023/04/16 10:59:05;;;;;;;1.15;0.88;;;;;;;;;;5053844;28;20170;-83
2023/04/16 11:01:33;;;;;;;0.80;0.80;;;;;;;;;;5052730;28;20037;-83
2023/04/16 11:04:03;;;;;;;2.00;1.27;;;;;;;;;;5053145;28;20025;-83
2023/04/16 11:06:28;;;;;;;0.82;0.80;;;;;;;;;;5064824;28;20033;-83
2023/04/16 11:08:54;;;;;;;0.80;0.80;;;;;;;;;;5053245;28;20406;-85
2023/04/16 11:11:20;;;;;;;1.45;1.10;;;;;;;;;;5054018;28;20041;-85
2023/04/16 11:13:46;;;;;;;1.38;1.20;;;;;;;;;;5052995;28;20181;-85
2023/04/16 11:16:15;;;;;;;2.70;2.13;;;;;;;;;;5054382;28;20033;-85
2023/04/16 11:18:43;;;;;;;2.70;1.00;;;;;;;;;;5052016;28;20037;-85
2023/04/16 11:21:11;;;;;;;2.55;1.88;;;;;;;;;;5055209;28;20040;-87
2023/04/16 11:23:46;;;;;;;7.15;0.80;;;;;;;;;;5054542;28;20071;-86
2023/04/16 11:26:26;;;;;;;0.63;0.63;;;;;;;;;;5053192;28;20037;-86
2023/04/16 11:28:55;;;;;;;1.13;0.93;;;;;;;;;;5052343;28;20394;-86
2023/04/16 11:31:22;;;;;;;0.88;0.75;;;;;;;;;;5052880;28;20188;-86
2023/04/16 11:33:47;;;;;;;1.23;0.90;;;;;;;;;;5052824;28;20044;-85
2023/04/16 11:36:13;;;;;;;0.80;0.70;;;;;;;;;;5053426;28;20029;-86
2023/04/16 11:38:41;;;;;;;0.50;0.50;;;;;;;;;;5053345;28;20036;-87
2023/04/16 11:41:09;;;;;;;0.88;0.73;;;;;;;;;;5053628;28;20041;-87
2023/04/16 11:43:34;;;;;;;0.82;0.70;;;;;;;;;;5051682;28;20044;-87
2023/04/16 11:46:02;;;;;;;1.83;1.25;;;;;;;;;;5052402;28;20047;-85
2023/04/16 11:48:49;;;;;;;3.10;1.60;;;;;;;;;;5055925;28;20407;-86
2023/04/16 11:51:15;;;;;;;0.75;0.60;;;;;;;;;;5056380;28;20043;-86
2023/04/16 11:53:51;;;;;;;1.08;0.80;;;;;;;;;;5056912;28;20041;-86
2023/04/16 11:56:33;;;;;;;0.80;0.70;;;;;;;;;;5057032;28;20040;-86
2023/04/16 11:59:09;;;;;;;0.60;0.60;;;;;;;;;;5056389;28;20110;-86
2023/04/16 12:01:36;;;;;;;0.70;0.50;;;;;;;;;;5054361;28;20037;-86
2023/04/16 12:04:02;;;;;;;0.68;0.60;;;;;;;;;;5054137;28;20021;-85
2023/04/16 12:06:28;;;;;;;2.50;1.35;;;;;;;;;;5048341;28;20128;-84
2023/04/16 12:08:53;;;;;;;1.60;0.80;;;;;;;;;;5058650;28;20496;-88
2023/04/16 12:11:19;;;;;;;1.48;1.20;;;;;;;;;;5055152;28;20067;-85
2023/04/16 12:14:10;;;;;;;3.72;1.02;;;;;;;;;;5063970;28;20037;-85
2023/04/16 12:16:36;;;;;;;1.33;0.70;;;;;;;;;;5070220;28;20037;-86
2023/04/16 12:19:03;;;;;;;3.10;1.40;;;;;;;;;;5056210;28;20104;-85
2023/04/16 12:21:40;;;;;;;2.15;0.80;;;;;;;;;;5040358;28;20513;-86
2023/04/16 12:24:07;;;;;;;0.73;0.68;;;;;;;;;;5055685;28;20036;-86
2023/04/16 12:26:41;;;;;;;1.33;0.82;;;;;;;;;;5037033;28;20068;-87
2023/04/16 12:29:21;;;;;;;1.60;0.80;;;;;;;;;;5040721;28;20117;-86
2023/04/16 12:31:48;;;;;;;0.80;0.70;;;;;;;;;;5061241;28;20039;-86
2023/04/16 12:34:14;;;;;;;0.80;0.70;;;;;;;;;;5065975;28;20041;-85
2023/04/16 12:36:41;;;;;;;0.80;0.60;;;;;;;;;;5064161;28;20037;-85
2023/04/16 12:39:07;;;;;;;0.98;0.70;;;;;;;;;;5054286;28;20248;-85
2023/04/16 12:41:36;;;;;;;0.60;0.60;;;;;;;;;;5055793;28;20159;-85
2023/04/16 12:44:15;;;;;;;0.82;0.70;;;;;;;;;;5055005;28;20506;-85
2023/04/16 12:46:41;;;;;;;0.82;0.60;;;;;;;;;;5055010;28;20037;-85
2023/04/16 12:49:08;;;;;;;1.27;0.70;;;;;;;;;;5054490;28;20045;-85
2023/04/16 12:51:34;;;;;;;1.02;0.85;;;;;;;;;;5047497;28;20047;-85
2023/04/16 12:54:02;;;;;;;1.15;0.80;;;;;;;;;;5054641;28;20033;-84
2023/04/16 12:56:27;;;;;;;1.17;0.85;;;;;;;;;;5054727;28;20047;-85
2023/04/16 12:58:53;;;;;;;1.38;0.98;;;;;;;;;;5053774;28;20033;-85
2023/04/16 13:01:19;;;;;;;1.10;0.80;;;;;;;;;;5055335;28;20122;-85
2023/04/16 13:03:45;;;;;;;0.95;0.70;;;;;;;;;;5054643;28;20056;-85
2023/04/16 13:06:11;;;;;;;1.50;0.93;;;;;;;;;;5055052;28;20132;-85
2023/04/16 13:08:37;;;;;;;0.90;0.77;;;;;;;;;;5054702;28;20076;-86
2023/04/16 13:11:03;;;;;;;1.25;0.70;;;;;;;;;;5054532;28;20079;-85
2023/04/16 13:13:28;;;;;;;0.57;0.55;;;;;;;;;;5054802;28;20036;-85
2023/04/16 13:15:54;;;;;;;0.57;0.57;;;;;;;;;;5053194;28;20037;-85
2023/04/16 13:18:19;;;;;;;0.60;0.60;;;;;;;;;;5053092;28;20066;-85
2023/04/16 13:20:45;;;;;;;0.57;0.57;;;;;;;;;;5050468;28;20043;-85
2023/04/16 13:23:10;;;;;;;0.73;0.50;;;;;;;;;;5053827;28;20072;-85
2023/04/16 13:25:36;;;;;;;0.60;0.60;;;;;;;;;;5053962;28;20083;-85
2023/04/16 13:28:01;;;;;;;0.50;0.50;;;;;;;;;;5053961;28;20020;-85
2023/04/16 13:30:28;;;;;;;0.65;0.60;;;;;;;;;;5051687;28;20478;-85
2023/04/16 13:32:54;;;;;;;0.60;0.50;;;;;;;;;;5052884;28;20033;-84
2023/04/16 13:35:20;;;;;;;0.50;0.50;;;;;;;;;;5049006;28;20079;-85
2023/04/16 13:37:45;;;;;;;0.52;0.52;;;;;;;;;;5052345;28;20037;-84
2023/04/16 13:40:11;;;;;;;1.20;0.60;;;;;;;;;;5051284;28;20028;-84
2023/04/16 13:42:36;;;;;;;0.60;0.60;;;;;;;;;;5053053;28;20065;-85
2023/04/16 13:45:02;;;;;;;0.52;0.50;;;;;;;;;;5034994;28;20036;-85
2023/04/16 13:47:28;;;;;;;0.60;0.60;;;;;;;;;;5050922;28;20441;-85
2023/04/16 13:49:53;;;;;;;0.80;0.70;;;;;;;;;;5050951;28;20033;-84
2023/04/16 13:52:19;;;;;;;0.80;0.70;;;;;;;;;;5049102;28;20105;-84
2023/04/16 13:54:44;;;;;;;0.65;0.65;;;;;;;;;;5050380;28;20094;-85
2023/04/16 13:57:18;;;;;;;;;;;;;;;;;;5050459;28;20065;-85
2023/04/16 13:59:44;;;;;;;0.52;0.52;;;;;;;;;;5051764;28;19909;-85
2023/04/16 14:02:10;;;;;;;0.55;0.55;;;;;;;;;;5051900;28;20040;-86
2023/04/16 14:04:35;;;;;;;1.02;0.70;;;;;;;;;;5032117;28;20037;-83
2023/04/16 14:07:01;;;;;;;0.70;0.70;;;;;;;;;;5051269;28;20040;-85
2023/04/16 14:09:26;;;;;;;1.00;0.70;;;;;;;;;;5049872;28;20482;-85
2023/04/16 14:11:52;;;;;;;1.60;0.80;;;;;;;;;;5042312;28;20033;-84
2023/04/16 14:14:18;;;;;;;0.77;0.70;;;;;;;;;;5066791;28;20106;-85
2023/04/16 14:16:43;;;;;;;0.50;0.50;;;;;;;;;;5051800;28;20167;-85
2023/04/16 14:19:09;;;;;;;1.02;0.90;;;;;;;;;;5049965;28;20041;-86
2023/04/16 14:21:34;;;;;;;0.85;0.80;;;;;;;;;;5046346;28;20044;-87
2023/04/16 14:24:00;;;;;;;0.75;0.75;;;;;;;;;;5060863;28;20032;-87
2023/04/16 14:26:26;;;;;;;0.60;0.60;;;;;;;;;;5053586;28;20041;-86
2023/04/16 14:28:51;;;;;;;3.50;0.70;;;;;;;;;;5052114;28;20040;-86
2023/04/16 14:31:18;;;;;;;0.80;0.60;;;;;;;;;;5052974;28;20072;-84
2023/04/16 14:33:44;;;;;;;0.73;0.70;;;;;;;;;;5050498;28;20557;-85
2023/04/16 14:36:10;;;;;;;0.80;0.80;;;;;;;;;;5047115;28;20498;-87
2023/04/16 14:38:36;;;;;;;0.52;0.52;;;;;;;;;;5050421;28;20068;-86
2023/04/16 14:41:01;;;;;;;0.80;0.70;;;;;;;;;;5047936;28;20120;-87